createdAt,value
2023-01-12T00:00:17.601Z,100.24
2023-01-12T00:01:17.470Z,100.24
2023-01-12T00:02:17.506Z,100.24
2023-01-12T00:03:17.462Z,100.24
2023-01-12T00:04:17.533Z,100.24
2023-01-12T00:05:17.468Z,100.24
2023-01-12T00:06:17.469Z,100.24
2023-01-12T00:07:17.468Z,100.24
2023-01-12T00:08:17.466Z,100.24
2023-01-12T00:09:17.494Z,100.24
2023-01-12T00:10:17.474Z,100.24
2023-01-12T00:11:17.504Z,100.24
2023-01-12T00:12:17.471Z,100.24
2023-01-12T00:13:17.471Z,100.24
2023-01-12T00:14:17.490Z,100.24
2023-01-12T00:15:17.488Z,100.24
2023-01-12T00:16:17.500Z,100.24
2023-01-12T00:17:17.468Z,100.24
2023-01-12T00:18:17.468Z,100.24
2023-01-12T00:19:17.460Z,100.24
2023-01-12T00:20:17.486Z,100.24
2023-01-12T00:21:17.472Z,100.24
2023-01-12T00:22:17.481Z,100.24
2023-01-12T00:23:17.477Z,100.24
2023-01-12T00:24:17.458Z,100.24
2023-01-12T00:25:17.464Z,100.24
2023-01-12T00:26:17.466Z,100.24
2023-01-12T00:27:17.507Z,100.24
2023-01-12T00:28:17.476Z,100.24
2023-01-12T00:29:17.472Z,100.24
2023-01-12T00:30:17.483Z,100.24
2023-01-12T00:31:17.534Z,100.24
2023-01-12T00:32:17.475Z,100.24
2023-01-12T00:33:17.474Z,100.24
2023-01-12T00:34:17.485Z,100.24
2023-01-12T00:35:17.479Z,100.24
2023-01-12T00:36:17.476Z,100.24
2023-01-12T00:37:17.481Z,100.24
2023-01-12T00:38:17.474Z,100.24
2023-01-12T00:39:17.480Z,100.24
2023-01-12T00:40:17.477Z,100.24
2023-01-12T00:41:17.499Z,100.24
2023-01-12T00:42:17.509Z,100.24
2023-01-12T00:43:17.520Z,100.24
2023-01-12T00:44:17.488Z,100.24
2023-01-12T00:45:17.518Z,100.24
2023-01-12T00:46:17.529Z,100.24
2023-01-12T00:47:17.499Z,100.24
2023-01-12T00:48:17.477Z,100.24
2023-01-12T00:49:17.500Z,100.24
2023-01-12T00:50:19.433Z,100.24
2023-01-12T00:51:17.491Z,100.24
2023-01-12T00:52:29.215Z,100.24
2023-01-12T00:53:17.484Z,100.24
2023-01-12T00:54:17.505Z,100.24
2023-01-12T00:55:17.515Z,100.24
2023-01-12T00:56:17.495Z,100.24
2023-01-12T00:57:17.490Z,100.24
2023-01-12T00:58:17.497Z,100.24
2023-01-12T00:59:17.529Z,100.24
2023-01-12T01:00:17.515Z,100.24
2023-01-12T01:01:17.578Z,100.24
2023-01-12T01:02:17.707Z,100.24
2023-01-12T01:03:17.504Z,100.24
2023-01-12T01:04:17.517Z,100.24
2023-01-12T01:05:17.515Z,100.24
2023-01-12T01:06:17.496Z,100.24
2023-01-12T01:07:17.498Z,100.24
2023-01-12T01:08:17.504Z,100.24
2023-01-12T01:09:17.513Z,100.24
2023-01-12T01:10:17.521Z,100.24
2023-01-12T01:11:17.508Z,100.24
2023-01-12T01:12:17.526Z,100.24
2023-01-12T01:13:17.510Z,100.24
2023-01-12T01:14:17.511Z,100.24
2023-01-12T01:15:17.550Z,100.24
2023-01-12T01:16:17.567Z,100.24
2023-01-12T01:17:17.527Z,100.24
2023-01-12T01:18:17.515Z,100.24
2023-01-12T01:19:17.517Z,100.24
2023-01-12T01:20:17.531Z,100.24
2023-01-12T01:21:17.516Z,100.24
2023-01-12T01:22:17.519Z,100.24
2023-01-12T01:23:17.519Z,100.24
2023-01-12T01:24:17.517Z,100.24
2023-01-12T01:25:17.518Z,100.24
2023-01-12T01:26:17.524Z,100.24
2023-01-12T01:27:17.514Z,100.24
2023-01-12T01:28:17.520Z,100.24
2023-01-12T01:29:17.512Z,100.24
2023-01-12T01:30:17.519Z,100.24
2023-01-12T01:31:17.608Z,100.24
2023-01-12T01:32:17.531Z,100.24
2023-01-12T01:33:17.522Z,100.24
2023-01-12T01:34:17.523Z,100.24
2023-01-12T01:35:17.521Z,100.24
2023-01-12T01:36:17.534Z,100.24
2023-01-12T01:37:17.525Z,100.24
2023-01-12T01:38:17.532Z,100.24
2023-01-12T01:39:17.548Z,100.24
2023-01-12T01:40:17.536Z,100.24
2023-01-12T01:41:17.527Z,100.24
2023-01-12T01:42:17.522Z,100.24
2023-01-12T01:43:17.524Z,100.24
2023-01-12T01:44:17.525Z,100.24
2023-01-12T01:45:17.534Z,100.24
2023-01-12T01:46:17.536Z,100.24
2023-01-12T01:47:17.560Z,100.24
2023-01-12T01:48:17.530Z,100.24
2023-01-12T01:49:17.525Z,100.24
2023-01-12T01:50:17.532Z,100.24
2023-01-12T01:51:17.527Z,100.24
2023-01-12T01:52:17.531Z,100.24
2023-01-12T01:53:17.533Z,100.24
2023-01-12T01:54:17.541Z,100.24
2023-01-12T01:55:17.551Z,100.24
2023-01-12T01:56:17.529Z,100.24
2023-01-12T01:57:17.541Z,100.24
2023-01-12T01:58:17.528Z,100.24
2023-01-12T01:59:17.566Z,100.24
2023-01-12T02:00:17.536Z,100.24
2023-01-12T02:01:17.605Z,100.24
2023-01-12T02:02:17.581Z,100.24
2023-01-12T02:03:17.587Z,100.24
2023-01-12T02:04:17.550Z,100.24
2023-01-12T02:05:17.540Z,100.24
2023-01-12T02:06:17.539Z,100.24
2023-01-12T02:07:17.552Z,100.24
2023-01-12T02:08:17.545Z,100.24
2023-01-12T02:09:17.535Z,100.24
2023-01-12T02:10:17.555Z,100.24
2023-01-12T02:11:17.539Z,100.24
2023-01-12T02:12:17.557Z,100.24
2023-01-12T02:13:17.584Z,100.24
2023-01-12T02:14:17.564Z,100.24
2023-01-12T02:15:17.543Z,100.24
2023-01-12T02:16:17.660Z,100.24
2023-01-12T02:17:17.544Z,100.24
2023-01-12T02:18:17.543Z,100.24
2023-01-12T02:19:17.568Z,100.24
2023-01-12T02:20:17.553Z,100.24
2023-01-12T02:21:17.573Z,100.24
2023-01-12T02:22:17.562Z,100.24
2023-01-12T02:23:17.585Z,100.24
2023-01-12T02:24:17.572Z,100.24
2023-01-12T02:25:17.568Z,100.24
2023-01-12T02:26:17.583Z,100.24
2023-01-12T02:27:17.568Z,100.24
2023-01-12T02:28:17.545Z,100.24
2023-01-12T02:29:17.563Z,100.24
2023-01-12T02:30:17.569Z,100.24
2023-01-12T02:31:17.632Z,100.24
2023-01-12T02:32:17.548Z,100.24
2023-01-12T02:33:17.555Z,100.24
2023-01-12T02:34:17.566Z,100.24
2023-01-12T02:35:17.576Z,100.24
2023-01-12T02:36:17.561Z,100.24
2023-01-12T02:37:17.558Z,100.24
2023-01-12T02:38:17.555Z,100.24
2023-01-12T02:39:17.555Z,100.24
2023-01-12T02:40:17.561Z,100.24
2023-01-12T02:41:17.560Z,100.24
2023-01-12T02:42:17.573Z,100.24
2023-01-12T02:43:17.570Z,100.24
2023-01-12T02:44:17.560Z,100.24
2023-01-12T02:45:17.573Z,100.24
2023-01-12T02:46:17.587Z,100.24
2023-01-12T02:47:17.571Z,100.24
2023-01-12T02:48:17.564Z,100.24
2023-01-12T02:49:17.559Z,100.24
2023-01-12T02:50:17.574Z,100.24
2023-01-12T02:51:17.625Z,100.24
2023-01-12T02:52:17.604Z,100.24
2023-01-12T02:53:17.593Z,100.24
2023-01-12T02:54:17.574Z,100.24
2023-01-12T02:55:17.577Z,100.24
2023-01-12T02:56:17.591Z,100.24
2023-01-12T02:57:17.580Z,100.24
2023-01-12T02:58:17.585Z,100.24
2023-01-12T02:59:17.576Z,100.24
2023-01-12T03:00:17.572Z,100.24
2023-01-12T03:01:17.728Z,100.24
2023-01-12T03:02:17.568Z,100.24
2023-01-12T03:03:17.638Z,100.24
2023-01-12T03:04:17.577Z,100.24
2023-01-12T03:05:17.588Z,100.24
2023-01-12T03:06:17.594Z,100.24
2023-01-12T03:07:17.607Z,100.24
2023-01-12T03:08:17.585Z,100.24
2023-01-12T03:09:17.586Z,100.24
2023-01-12T03:10:17.581Z,100.24
2023-01-12T03:11:17.574Z,100.24
2023-01-12T03:12:17.578Z,100.24
2023-01-12T03:13:17.586Z,100.24
2023-01-12T03:14:17.609Z,100.24
2023-01-12T03:15:17.576Z,100.24
2023-01-12T03:16:17.664Z,100.24
2023-01-12T03:17:17.578Z,100.24
2023-01-12T03:18:17.575Z,100.24
2023-01-12T03:19:17.576Z,100.24
2023-01-12T03:20:17.574Z,100.24
2023-01-12T03:21:17.592Z,100.24
2023-01-12T03:22:17.583Z,100.24
2023-01-12T03:23:17.604Z,100.24
2023-01-12T03:24:17.575Z,96
2023-01-12T03:25:17.613Z,86.12
2023-01-12T03:26:17.588Z,86.12
2023-01-12T03:27:17.575Z,86.12
2023-01-12T03:28:17.581Z,86.12
2023-01-12T03:29:17.588Z,86.12
2023-01-12T03:30:17.584Z,86.12
2023-01-12T03:31:17.611Z,86.12
2023-01-12T03:32:17.572Z,86.12
2023-01-12T03:33:17.589Z,86.12
2023-01-12T03:34:17.612Z,86.12
2023-01-12T03:35:17.580Z,86.12
2023-01-12T03:36:17.577Z,86.12
2023-01-12T03:37:17.586Z,86.12
2023-01-12T03:38:17.595Z,86.12
2023-01-12T03:39:17.601Z,86.12
2023-01-12T03:40:17.586Z,86.12
2023-01-12T03:41:17.585Z,86.12
2023-01-12T03:42:17.588Z,86.12
2023-01-12T03:43:17.591Z,86.12
2023-01-12T03:44:17.580Z,86.12
2023-01-12T03:45:17.582Z,86.12
2023-01-12T03:46:17.589Z,86.12
2023-01-12T03:47:17.590Z,86.12
2023-01-12T03:48:17.582Z,86.12
2023-01-12T03:49:17.597Z,86.12
2023-01-12T03:50:17.612Z,86.12
2023-01-12T03:51:17.604Z,86.12
2023-01-12T03:52:17.585Z,86.12
2023-01-12T03:53:17.592Z,86.12
2023-01-12T03:54:17.603Z,86.12
2023-01-12T03:55:17.607Z,86.12
2023-01-12T03:56:17.574Z,86.12
2023-01-12T03:57:17.590Z,86.12
2023-01-12T03:58:17.588Z,86.12
2023-01-12T03:59:17.593Z,86.12
2023-01-12T04:00:17.594Z,86.12
2023-01-12T04:01:17.669Z,86.12
2023-01-12T04:02:17.618Z,86.12
2023-01-12T04:03:17.668Z,86.12
2023-01-12T04:04:17.608Z,86.12
2023-01-12T04:05:17.592Z,86.12
2023-01-12T04:06:17.600Z,86.12
2023-01-12T04:07:17.592Z,86.12
2023-01-12T04:08:17.584Z,86.12
2023-01-12T04:09:17.600Z,86.12
2023-01-12T04:10:17.585Z,86.12
2023-01-12T04:11:17.608Z,86.12
2023-01-12T04:12:17.589Z,86.12
2023-01-12T04:13:17.605Z,86.12
2023-01-12T04:14:17.589Z,86.12
2023-01-12T04:15:17.584Z,86.12
2023-01-12T04:16:17.633Z,86.12
2023-01-12T04:17:17.587Z,86.12
2023-01-12T04:18:17.603Z,86.12
2023-01-12T04:19:17.593Z,86.12
2023-01-12T04:20:17.595Z,86.12
2023-01-12T04:21:17.593Z,86.12
2023-01-12T04:22:17.599Z,86.12
2023-01-12T04:23:17.592Z,86.12
2023-01-12T04:24:17.599Z,86.12
2023-01-12T04:25:17.596Z,86.12
2023-01-12T04:26:17.606Z,86.12
2023-01-12T04:27:17.634Z,86.12
2023-01-12T04:28:17.600Z,86.12
2023-01-12T04:29:17.603Z,86.12
2023-01-12T04:30:17.617Z,86.12
2023-01-12T04:31:17.655Z,86.12
2023-01-12T04:32:17.603Z,86.12
2023-01-12T04:33:17.626Z,86.12
2023-01-12T04:34:17.621Z,86.12
2023-01-12T04:35:17.627Z,86.12
2023-01-12T04:36:17.630Z,86.12
2023-01-12T04:37:17.611Z,86.12
2023-01-12T04:38:17.608Z,86.12
2023-01-12T04:39:17.615Z,86.12
2023-01-12T04:40:17.615Z,86.12
2023-01-12T04:41:17.636Z,86.12
2023-01-12T04:42:17.621Z,86.12
2023-01-12T04:43:17.647Z,86.12
2023-01-12T04:44:17.637Z,86.12
2023-01-12T04:45:17.640Z,86.12
2023-01-12T04:46:17.746Z,86.12
2023-01-12T04:47:17.634Z,86.12
2023-01-12T04:48:17.654Z,86.12
2023-01-12T04:49:17.628Z,86.12
2023-01-12T04:50:17.648Z,86.12
2023-01-12T04:51:17.643Z,86.12
2023-01-12T04:52:17.645Z,86.12
2023-01-12T04:53:17.698Z,86.12
2023-01-12T04:54:17.660Z,86.12
2023-01-12T04:55:17.654Z,86.12
2023-01-12T04:56:17.627Z,86.12
2023-01-12T04:57:17.635Z,86.12
2023-01-12T04:58:17.650Z,86.12
2023-01-12T04:59:17.666Z,86.12
2023-01-12T05:00:17.648Z,86.12
2023-01-12T05:01:17.828Z,86.12
2023-01-12T05:02:17.654Z,86.12
2023-01-12T05:03:17.666Z,86.12
2023-01-12T05:04:17.703Z,86.12
2023-01-12T05:05:17.669Z,86.12
2023-01-12T05:06:17.667Z,86.12
2023-01-12T05:07:17.678Z,86.12
2023-01-12T05:08:17.664Z,86.12
2023-01-12T05:09:19.826Z,86.12
2023-01-12T05:10:17.672Z,86.12
2023-01-12T05:11:17.667Z,86.12
2023-01-12T05:12:17.661Z,86.12
2023-01-12T05:13:17.659Z,86.12
2023-01-12T05:14:17.698Z,86.12
2023-01-12T05:15:17.717Z,86.12
2023-01-12T05:16:17.717Z,86.12
2023-01-12T05:17:17.670Z,86.12
2023-01-12T05:18:17.676Z,86.12
2023-01-12T05:19:17.673Z,86.12
2023-01-12T05:20:17.684Z,86.12
2023-01-12T05:21:17.670Z,86.12
2023-01-12T05:22:17.673Z,86.12
2023-01-12T05:23:17.673Z,86.12
2023-01-12T05:24:17.674Z,86.12
2023-01-12T05:25:17.681Z,86.12
2023-01-12T05:26:17.698Z,86.12
2023-01-12T05:27:17.681Z,86.12
2023-01-12T05:28:17.679Z,86.12
2023-01-12T05:29:17.691Z,86.12
2023-01-12T05:30:17.690Z,86.12
2023-01-12T05:31:17.721Z,86.12
2023-01-12T05:32:17.690Z,86.12
2023-01-12T05:33:17.697Z,86.12
2023-01-12T05:34:17.701Z,86.12
2023-01-12T05:35:17.699Z,86.12
2023-01-12T05:36:17.690Z,86.12
2023-01-12T05:37:17.698Z,86.12
2023-01-12T05:38:17.713Z,86.12
2023-01-12T05:39:17.711Z,86.12
2023-01-12T05:40:17.716Z,86.12
2023-01-12T05:41:17.703Z,86.12
2023-01-12T05:42:17.718Z,86.12
2023-01-12T05:43:17.703Z,86.12
2023-01-12T05:44:17.696Z,86.12
2023-01-12T05:45:17.692Z,86.12
2023-01-12T05:46:17.765Z,86.12
2023-01-12T05:47:17.732Z,86.12
2023-01-12T05:48:17.719Z,86.12
2023-01-12T05:49:17.710Z,86.12
2023-01-12T05:50:17.712Z,86.12
2023-01-12T05:51:17.722Z,86.12
2023-01-12T05:52:17.702Z,86.12
2023-01-12T05:53:17.723Z,86.12
2023-01-12T05:54:17.711Z,86.12
2023-01-12T05:55:17.716Z,86.12
2023-01-12T05:56:17.730Z,86.12
2023-01-12T05:57:17.719Z,86.12
2023-01-12T05:58:17.716Z,86.12
2023-01-12T05:59:17.743Z,86.12
2023-01-12T06:00:17.708Z,86.12
2023-01-12T06:01:17.869Z,86.12
2023-01-12T06:02:18.023Z,86.12
2023-01-12T06:03:17.784Z,86.12
2023-01-12T06:04:17.759Z,86.12
2023-01-12T06:05:17.732Z,86.12
2023-01-12T06:06:17.727Z,86.12
2023-01-12T06:07:17.743Z,86.12
2023-01-12T06:08:17.730Z,86.12
2023-01-12T06:09:17.766Z,86.12
2023-01-12T06:10:17.759Z,86.12
2023-01-12T06:11:17.735Z,86.12
2023-01-12T06:12:17.746Z,86.12
2023-01-12T06:13:17.753Z,86.12
2023-01-12T06:14:17.736Z,86.12
2023-01-12T06:15:17.736Z,86.12
2023-01-12T06:16:17.772Z,86.12
2023-01-12T06:17:17.742Z,86.12
2023-01-12T06:18:17.740Z,86.12
2023-01-12T06:19:17.791Z,86.12
2023-01-12T06:20:17.754Z,86.12
2023-01-12T06:21:17.761Z,86.12
2023-01-12T06:22:17.760Z,86.12
2023-01-12T06:23:17.783Z,86.12
2023-01-12T06:24:17.758Z,86.12
2023-01-12T06:25:17.750Z,86.12
2023-01-12T06:26:17.749Z,86.12
2023-01-12T06:27:17.748Z,86.12
2023-01-12T06:28:17.764Z,86.12
2023-01-12T06:29:17.764Z,86.12
2023-01-12T06:30:17.768Z,86.12
2023-01-12T06:31:17.803Z,86.12
2023-01-12T06:32:17.765Z,86.12
2023-01-12T06:33:17.775Z,86.12
2023-01-12T06:34:17.763Z,86.12
2023-01-12T06:35:19.299Z,86.12
2023-01-12T06:36:17.767Z,86.12
2023-01-12T06:37:17.781Z,86.12
2023-01-12T06:38:19.007Z,86.12
2023-01-12T06:39:17.769Z,86.12
2023-01-12T06:40:17.781Z,86.12
2023-01-12T06:41:17.777Z,86.12
2023-01-12T06:42:17.791Z,86.12
2023-01-12T06:43:17.776Z,86.12
2023-01-12T06:44:17.785Z,86.12
2023-01-12T06:45:17.784Z,86.12
2023-01-12T06:46:17.865Z,86.12
2023-01-12T06:47:17.787Z,86.12
2023-01-12T06:48:17.788Z,86.12
2023-01-12T06:49:17.782Z,86.12
2023-01-12T06:50:17.799Z,86.12
2023-01-12T06:51:17.808Z,86.12
2023-01-12T06:52:17.807Z,86.12
2023-01-12T06:53:17.786Z,86.12
2023-01-12T06:54:18.767Z,86.12
2023-01-12T06:55:17.800Z,86.12
2023-01-12T06:56:17.804Z,86.12
2023-01-12T06:57:17.801Z,86.12
2023-01-12T06:58:17.794Z,86.12
2023-01-12T06:59:17.813Z,86.12
2023-01-12T07:00:17.802Z,86.12
2023-01-12T07:01:17.919Z,86.12
2023-01-12T07:02:17.815Z,86.12
2023-01-12T07:03:17.807Z,86.12
2023-01-12T07:04:17.832Z,86.12
2023-01-12T07:05:17.812Z,86.12
2023-01-12T07:06:17.802Z,86.12
2023-01-12T07:07:17.825Z,86.12
2023-01-12T07:08:17.821Z,86.12
2023-01-12T07:09:17.827Z,86.12
2023-01-12T07:10:17.816Z,86.12
2023-01-12T07:11:17.825Z,86.12
2023-01-12T07:12:17.852Z,86.12
2023-01-12T07:13:17.812Z,86.12
2023-01-12T07:14:17.817Z,86.12
2023-01-12T07:15:17.825Z,86.12
2023-01-12T07:16:17.875Z,86.12
2023-01-12T07:17:17.821Z,86.12
2023-01-12T07:18:17.852Z,86.12
2023-01-12T07:19:17.825Z,86.12
2023-01-12T07:20:17.822Z,86.12
2023-01-12T07:21:17.818Z,86.12
2023-01-12T07:22:17.830Z,86.12
2023-01-12T07:23:17.848Z,86.12
2023-01-12T07:24:17.832Z,86.12
2023-01-12T07:25:17.835Z,86.12
2023-01-12T07:26:17.861Z,86.12
2023-01-12T07:27:17.833Z,86.12
2023-01-12T07:28:17.820Z,86.12
2023-01-12T07:29:17.831Z,86.12
2023-01-12T07:30:17.833Z,86.12
2023-01-12T07:31:17.901Z,86.12
2023-01-12T07:32:17.836Z,86.12
2023-01-12T07:33:18.788Z,86.12
2023-01-12T07:34:17.845Z,86.12
2023-01-12T07:35:17.856Z,86.12
2023-01-12T07:36:17.826Z,86.12
2023-01-12T07:37:17.859Z,86.12
2023-01-12T07:38:17.842Z,86.12
2023-01-12T07:39:17.874Z,86.12
2023-01-12T07:40:17.826Z,86.12
2023-01-12T07:41:17.840Z,86.12
2023-01-12T07:42:17.850Z,86.12
2023-01-12T07:43:17.854Z,86.12
2023-01-12T07:44:17.855Z,86.12
2023-01-12T07:45:17.853Z,86.12
2023-01-12T07:46:17.887Z,86.12
2023-01-12T07:47:17.860Z,86.12
2023-01-12T07:48:17.840Z,86.12
2023-01-12T07:49:17.844Z,86.12
2023-01-12T07:50:17.869Z,86.12
2023-01-12T07:51:17.857Z,86.12
2023-01-12T07:52:17.851Z,86.12
2023-01-12T07:53:17.843Z,86.12
2023-01-12T07:54:17.855Z,86.12
2023-01-12T07:55:17.924Z,86.12
2023-01-12T07:56:17.868Z,86.12
2023-01-12T07:57:17.863Z,86.12
2023-01-12T07:58:17.889Z,86.12
2023-01-12T07:59:17.889Z,86.12
2023-01-12T08:00:17.860Z,86.12
2023-01-12T08:01:17.901Z,86.12
2023-01-12T08:02:17.942Z,86.12
2023-01-12T08:03:17.862Z,86.12
2023-01-12T08:04:17.875Z,86.12
2023-01-12T08:05:17.896Z,86.12
2023-01-12T08:06:17.864Z,86.12
2023-01-12T08:07:17.857Z,86.12
2023-01-12T08:08:17.862Z,86.12
2023-01-12T08:09:17.874Z,86.12
2023-01-12T08:10:17.889Z,86.12
2023-01-12T08:11:17.899Z,86.12
2023-01-12T08:12:17.872Z,86.12
2023-01-12T08:13:17.881Z,86.12
2023-01-12T08:14:17.890Z,86.12
2023-01-12T08:15:17.893Z,86.12
2023-01-12T08:16:17.914Z,86.12
2023-01-12T08:17:17.876Z,86.12
2023-01-12T08:18:17.878Z,86.12
2023-01-12T08:19:17.874Z,86.12
2023-01-12T08:20:17.897Z,86.12
2023-01-12T08:21:17.872Z,86.12
2023-01-12T08:22:17.876Z,86.12
2023-01-12T08:23:17.881Z,86.12
2023-01-12T08:24:17.878Z,86.12
2023-01-12T08:25:17.891Z,86.12
2023-01-12T08:26:17.887Z,86.12
2023-01-12T08:27:17.918Z,86.12
2023-01-12T08:28:17.890Z,86.12
2023-01-12T08:29:17.896Z,86.12
2023-01-12T08:30:17.910Z,86.12
2023-01-12T08:32:17.949Z,86.12
2023-01-12T08:33:17.895Z,86.12
2023-01-12T08:34:17.898Z,86.12
2023-01-12T08:35:17.892Z,86.12
2023-01-12T08:36:17.917Z,86.12
2023-01-12T08:37:17.927Z,86.12
2023-01-12T08:38:17.889Z,86.12
2023-01-12T08:39:17.900Z,86.12
2023-01-12T08:40:17.901Z,86.12
2023-01-12T08:41:17.902Z,86.12
2023-01-12T08:42:17.909Z,86.12
2023-01-12T08:43:17.941Z,86.12
2023-01-12T08:44:17.913Z,86.12
2023-01-12T08:45:17.947Z,86.12
2023-01-12T08:46:17.971Z,86.12
2023-01-12T08:47:17.904Z,86.12
2023-01-12T08:48:17.896Z,86.12
2023-01-12T08:49:17.901Z,86.12
2023-01-12T08:50:17.916Z,86.12
2023-01-12T08:51:17.908Z,86.12
2023-01-12T08:52:17.916Z,86.12
2023-01-12T08:53:17.910Z,86.12
2023-01-12T08:54:17.919Z,86.12
2023-01-12T08:55:17.908Z,86.12
2023-01-12T08:56:17.903Z,86.12
2023-01-12T08:57:17.909Z,86.12
2023-01-12T08:58:17.912Z,86.12
2023-01-12T08:59:17.940Z,86.12
2023-01-12T09:00:17.915Z,86.12
2023-01-12T09:01:18.054Z,86.12
2023-01-12T09:02:18.024Z,86.12
2023-01-12T09:03:17.913Z,86.12
2023-01-12T09:04:17.924Z,86.12
2023-01-12T09:05:17.925Z,86.12
2023-01-12T09:06:17.913Z,86.12
2023-01-12T09:07:17.925Z,86.12
2023-01-12T09:08:17.918Z,86.12
2023-01-12T09:09:17.925Z,86.12
2023-01-12T09:10:17.925Z,86.12
2023-01-12T09:11:17.928Z,86.12
2023-01-12T09:12:17.927Z,86.12
2023-01-12T09:13:17.929Z,86.12
2023-01-12T09:14:17.981Z,86.12
2023-01-12T09:15:17.955Z,86.12
2023-01-12T09:16:18.005Z,86.12
2023-01-12T09:17:17.943Z,117.18
2023-01-12T09:18:19.670Z,94.59
2023-01-12T09:19:17.931Z,94.59
2023-01-12T09:20:17.941Z,103.06
2023-01-12T09:21:17.958Z,97.41
2023-01-12T09:22:17.933Z,97.41
2023-01-12T09:23:17.929Z,97.41
2023-01-12T09:24:17.937Z,112.94
2023-01-12T09:25:17.935Z,88.94
2023-01-12T09:26:17.938Z,88.94
2023-01-12T09:27:17.946Z,88.94
2023-01-12T09:28:17.930Z,88.94
2023-01-12T09:29:17.942Z,88.94
2023-01-12T09:30:17.932Z,88.94
2023-01-12T09:31:19.056Z,88.94
2023-01-12T09:32:20.487Z,88.94
2023-01-12T09:33:17.945Z,88.94
2023-01-12T09:34:17.968Z,88.94
2023-01-12T09:35:17.954Z,88.94
2023-01-12T09:36:17.938Z,88.94
2023-01-12T09:37:17.963Z,88.94
2023-01-12T09:38:17.948Z,88.94
2023-01-12T09:39:27.168Z,88.94
2023-01-12T09:40:17.962Z,88.94
2023-01-12T09:41:17.947Z,88.94
2023-01-12T09:42:17.969Z,88.94
2023-01-12T09:43:17.955Z,88.94
2023-01-12T09:44:17.962Z,88.94
2023-01-12T09:45:17.950Z,88.94
2023-01-12T09:46:17.970Z,88.94
2023-01-12T09:47:17.992Z,88.94
2023-01-12T09:48:17.956Z,88.94
2023-01-12T09:49:17.941Z,88.94
2023-01-12T09:50:17.977Z,88.94
2023-01-12T09:51:17.958Z,88.94
2023-01-12T09:52:17.959Z,88.94
2023-01-12T09:53:17.966Z,88.94
2023-01-12T09:54:17.960Z,88.94
2023-01-12T09:55:17.952Z,88.94
2023-01-12T09:56:17.968Z,88.94
2023-01-12T09:57:28.703Z,88.94
2023-01-12T09:58:17.971Z,88.94
2023-01-12T09:59:18.653Z,88.94
2023-01-12T10:00:17.959Z,88.94
2023-01-12T10:01:28.624Z,88.94
2023-01-12T10:02:18.038Z,88.94
2023-01-12T10:03:18.027Z,88.94
2023-01-12T10:04:17.955Z,88.94
2023-01-12T10:05:17.965Z,88.94
2023-01-12T10:06:17.963Z,88.94
2023-01-12T10:07:17.967Z,88.94
2023-01-12T10:08:17.965Z,88.94
2023-01-12T10:09:17.974Z,88.94
2023-01-12T10:10:17.976Z,88.94
2023-01-12T10:11:17.971Z,88.94
2023-01-12T10:12:17.960Z,88.94
2023-01-12T10:13:17.977Z,88.94
2023-01-12T10:14:17.971Z,88.94
2023-01-12T10:15:17.995Z,88.94
2023-01-12T10:16:17.991Z,88.94
2023-01-12T10:17:17.970Z,115.76
2023-01-12T10:18:17.972Z,98.82
2023-01-12T10:19:18.002Z,115.76
2023-01-12T10:20:18.409Z,86.12
2023-01-12T10:21:17.968Z,56.47
2023-01-12T10:22:17.972Z,56.47
2023-01-12T10:23:17.975Z,145.41
2023-01-12T10:24:17.974Z,124.24
2023-01-12T10:25:17.958Z,124.24
2023-01-12T10:26:17.966Z,124.24
2023-01-12T10:27:17.970Z,124.24
2023-01-12T10:28:17.997Z,124.24
2023-01-12T10:29:17.970Z,124.24
2023-01-12T10:30:17.964Z,124.24
2023-01-12T10:31:18.051Z,124.24
2023-01-12T10:32:17.990Z,124.24
2023-01-12T10:33:17.979Z,124.24
2023-01-12T10:34:17.984Z,124.24
2023-01-12T10:35:18.012Z,124.24
2023-01-12T10:36:18.004Z,124.24
2023-01-12T10:37:18.007Z,124.24
2023-01-12T10:38:17.975Z,124.24
2023-01-12T10:39:18.025Z,124.24
2023-01-12T10:40:17.992Z,124.24
2023-01-12T10:41:18.065Z,124.24
2023-01-12T10:42:17.981Z,124.24
2023-01-12T10:43:19.934Z,124.24
2023-01-12T10:44:17.989Z,124.24
2023-01-12T10:45:18.005Z,124.24
2023-01-12T10:46:18.069Z,124.24
2023-01-12T10:47:18.006Z,124.24
2023-01-12T10:48:18.010Z,124.24
2023-01-12T10:49:17.995Z,124.24
2023-01-12T10:50:18.000Z,124.24
2023-01-12T10:51:18.039Z,124.24
2023-01-12T10:52:17.999Z,124.24
2023-01-12T10:53:18.021Z,124.24
2023-01-12T10:54:18.000Z,124.24
2023-01-12T10:55:17.999Z,124.24
2023-01-12T10:56:17.995Z,124.24
2023-01-12T10:57:18.002Z,124.24
2023-01-12T10:58:18.011Z,124.24
2023-01-12T10:59:18.024Z,124.24
2023-01-12T11:00:18.009Z,124.24
2023-01-12T11:01:18.123Z,124.24
2023-01-12T11:02:18.311Z,135.53
2023-01-12T11:03:18.015Z,160.94
2023-01-12T11:04:18.046Z,139.76
2023-01-12T11:05:18.027Z,87.53
2023-01-12T11:06:18.022Z,136.94
2023-01-12T11:07:18.049Z,149.65
2023-01-12T11:08:18.020Z,149.65
2023-01-12T11:09:18.015Z,149.65
2023-01-12T11:10:19.261Z,149.65
2023-01-12T11:11:18.028Z,149.65
2023-01-12T11:12:18.026Z,149.65
2023-01-12T11:13:18.017Z,149.65
2023-01-12T11:14:22.596Z,149.65
2023-01-12T11:15:18.032Z,149.65
2023-01-12T11:16:18.089Z,149.65
2023-01-12T11:17:18.051Z,149.65
2023-01-12T11:18:18.026Z,149.65
2023-01-12T11:19:18.046Z,149.65
2023-01-12T11:20:18.055Z,149.65
2023-01-12T11:21:18.048Z,149.65
2023-01-12T11:22:18.036Z,149.65
2023-01-12T11:23:18.082Z,149.65
2023-01-12T11:24:18.029Z,79.06
2023-01-12T11:25:18.040Z,79.06
2023-01-12T11:26:18.049Z,79.06
2023-01-12T11:27:18.041Z,79.06
2023-01-12T11:28:18.029Z,79.06
2023-01-12T11:29:18.034Z,79.06
2023-01-12T11:30:18.053Z,79.06
2023-01-12T11:31:18.043Z,79.06
2023-01-12T11:32:18.047Z,79.06
2023-01-12T11:33:18.053Z,79.06
2023-01-12T11:34:18.045Z,79.06
2023-01-12T11:35:18.049Z,79.06
2023-01-12T11:36:18.051Z,79.06
2023-01-12T11:37:18.059Z,79.06
2023-01-12T11:38:18.043Z,79.06
2023-01-12T11:39:18.080Z,79.06
2023-01-12T11:40:18.048Z,79.06
2023-01-12T11:41:19.164Z,79.06
2023-01-12T11:42:18.077Z,79.06
2023-01-12T11:43:18.065Z,79.06
2023-01-12T11:44:18.059Z,79.06
2023-01-12T11:45:18.066Z,79.06
2023-01-12T11:46:18.110Z,79.06
2023-01-12T11:47:18.052Z,79.06
2023-01-12T11:48:18.070Z,79.06
2023-01-12T11:49:18.082Z,79.06
2023-01-12T11:50:18.078Z,79.06
2023-01-12T11:51:18.065Z,79.06
2023-01-12T11:52:18.073Z,79.06
2023-01-12T11:53:18.055Z,79.06
2023-01-12T11:54:18.073Z,79.06
2023-01-12T11:55:18.087Z,79.06
2023-01-12T11:56:18.061Z,79.06
2023-01-12T11:57:18.070Z,79.06
2023-01-12T11:58:18.078Z,79.06
2023-01-12T11:59:18.077Z,79.06
2023-01-12T12:00:18.077Z,79.06
2023-01-12T12:01:18.116Z,79.06
2023-01-12T12:02:18.138Z,79.06
2023-01-12T12:03:18.124Z,79.06
2023-01-12T12:04:18.074Z,79.06
2023-01-12T12:05:18.109Z,79.06
2023-01-12T12:06:18.098Z,79.06
2023-01-12T12:07:18.074Z,79.06
2023-01-12T12:08:18.080Z,79.06
2023-01-12T12:09:18.080Z,79.06
2023-01-12T12:10:18.072Z,79.06
2023-01-12T12:11:18.138Z,79.06
2023-01-12T12:12:18.086Z,79.06
2023-01-12T12:13:18.090Z,79.06
2023-01-12T12:14:18.074Z,79.06
2023-01-12T12:15:18.081Z,79.06
2023-01-12T12:16:18.180Z,79.06
2023-01-12T12:17:18.091Z,79.06
2023-01-12T12:18:18.088Z,79.06
2023-01-12T12:19:18.088Z,129.88
2023-01-12T12:20:18.079Z,97.41
2023-01-12T12:21:18.106Z,80.47
2023-01-12T12:22:18.099Z,98.82
2023-01-12T12:23:18.087Z,73.41
2023-01-12T12:24:18.097Z,134.12
2023-01-12T12:25:18.100Z,115.76
2023-01-12T12:26:18.088Z,110.12
2023-01-12T12:27:18.116Z,110.12
2023-01-12T12:28:18.103Z,110.12
2023-01-12T12:29:18.106Z,110.12
2023-01-12T12:30:18.127Z,110.12
2023-01-12T12:31:18.138Z,87.53
2023-01-12T12:32:18.097Z,96
2023-01-12T12:33:18.096Z,96
2023-01-12T12:34:18.092Z,103.06
2023-01-12T12:35:18.099Z,103.06
2023-01-12T12:36:18.102Z,146.82
2023-01-12T12:37:18.112Z,149.65
2023-01-12T12:38:18.100Z,135.53
2023-01-12T12:39:18.109Z,135.53
2023-01-12T12:40:18.092Z,135.53
2023-01-12T12:41:18.094Z,135.53
2023-01-12T12:42:18.099Z,135.53
2023-01-12T12:43:18.121Z,135.53
2023-01-12T12:44:18.095Z,135.53